KGVT/GVT METAR and TAF weather

Enter ICAO airport designator
Station Type Date Time Source
KGVT METAR 2019/08/26 06:55 UTC NOAA

KGVT 260655Z AUTO 15005KT 10SM CLR 29/24 A2979 RMK AO2


Station Type Date Time Source
KGVT Decoded METAR 2019/08/26 06:55 UTC NOAA

Station name not available
Aug 26, 2019 - 02:55 AM EDT / 2019.08.26 0655 UTC
Wind: from the SSE (150 degrees) at 6 MPH (5 KT):0
Visibility: 10 mile(s):0
Sky conditions: clear
Temperature: 84 F (29 C)
Dew Point: 75 F (24 C)
Relative Humidity: 74%
Pressure (altimeter): 29.79 in. Hg (1008 hPa)
ob: KGVT 260655Z AUTO 15005KT 10SM CLR 29/24 A2979 RMK AO2
cycle: 7

Station Type Date Time Source
KGVT TAF UTC NOAA

Error!

Example: see airport list